sensor_id;sensor_type;location;lat;lon;timestamp;P1;durP1;ratioP1;P2;durP2;ratioP2
15142;SDS011;7672;50.834;6.286;2022-08-16T00:01:04;5.53;;;4.07;;
15142;SDS011;7672;50.834;6.286;2022-08-16T00:03:37;5.88;;;4.10;;
15142;SDS011;7672;50.834;6.286;2022-08-16T00:06:07;5.90;;;4.50;;
15142;SDS011;7672;50.834;6.286;2022-08-16T00:08:35;5.37;;;4.87;;
15142;SDS011;7672;50.834;6.286;2022-08-16T00:11:11;5.15;;;4.10;;
15142;SDS011;7672;50.834;6.286;2022-08-16T00:13:51;5.00;;;4.03;;
15142;SDS011;7672;50.834;6.286;2022-08-16T00:16:34;5.38;;;3.88;;
15142;SDS011;7672;50.834;6.286;2022-08-16T00:19:26;6.78;;;4.07;;
15142;SDS011;7672;50.834;6.286;2022-08-16T00:22:07;4.23;;;3.80;;
15142;SDS011;7672;50.834;6.286;2022-08-16T00:24:39;4.72;;;3.72;;
15142;SDS011;7672;50.834;6.286;2022-08-16T00:27:16;5.45;;;4.10;;
15142;SDS011;7672;50.834;6.286;2022-08-16T00:29:47;5.33;;;3.67;;
15142;SDS011;7672;50.834;6.286;2022-08-16T00:32:35;4.65;;;4.03;;
15142;SDS011;7672;50.834;6.286;2022-08-16T00:35:12;3.95;;;3.55;;
15142;SDS011;7672;50.834;6.286;2022-08-16T00:37:46;5.07;;;3.90;;
15142;SDS011;7672;50.834;6.286;2022-08-16T00:40:25;3.97;;;3.60;;
15142;SDS011;7672;50.834;6.286;2022-08-16T00:43:21;3.97;;;3.50;;
15142;SDS011;7672;50.834;6.286;2022-08-16T00:49:27;4.68;;;3.90;;
15142;SDS011;7672;50.834;6.286;2022-08-16T00:52:04;4.00;;;3.60;;
15142;SDS011;7672;50.834;6.286;2022-08-16T00:54:55;4.32;;;3.90;;
15142;SDS011;7672;50.834;6.286;2022-08-16T00:57:26;4.07;;;3.78;;
15142;SDS011;7672;50.834;6.286;2022-08-16T01:00:17;4.05;;;3.75;;
15142;SDS011;7672;50.834;6.286;2022-08-16T01:02:49;4.25;;;3.88;;
15142;SDS011;7672;50.834;6.286;2022-08-16T01:05:19;6.40;;;3.95;;
15142;SDS011;7672;50.834;6.286;2022-08-16T01:07:54;4.33;;;3.90;;
15142;SDS011;7672;50.834;6.286;2022-08-16T01:10:25;4.70;;;3.50;;
15142;SDS011;7672;50.834;6.286;2022-08-16T01:13:03;5.13;;;4.07;;
15142;SDS011;7672;50.834;6.286;2022-08-16T01:15:42;7.30;;;4.00;;
15142;SDS011;7672;50.834;6.286;2022-08-16T01:18:21;9.57;;;4.20;;
15142;SDS011;7672;50.834;6.286;2022-08-16T01:27:23;5.60;;;3.90;;
15142;SDS011;7672;50.834;6.286;2022-08-16T01:32:52;3.70;;;3.40;;
15142;SDS011;7672;50.834;6.286;2022-08-16T01:35:54;5.55;;;3.55;;
15142;SDS011;7672;50.834;6.286;2022-08-16T01:38:53;4.10;;;3.77;;
15142;SDS011;7672;50.834;6.286;2022-08-16T01:41:33;5.67;;;3.70;;
15142;SDS011;7672;50.834;6.286;2022-08-16T01:44:09;5.83;;;3.87;;
15142;SDS011;7672;50.834;6.286;2022-08-16T01:46:44;3.80;;;3.50;;
15142;SDS011;7672;50.834;6.286;2022-08-16T01:49:20;4.07;;;3.77;;
15142;SDS011;7672;50.834;6.286;2022-08-16T01:52:12;4.90;;;3.63;;
15142;SDS011;7672;50.834;6.286;2022-08-16T01:54:55;4.23;;;3.83;;
15142;SDS011;7672;50.834;6.286;2022-08-16T01:57:25;4.30;;;3.90;;
15142;SDS011;7672;50.834;6.286;2022-08-16T01:59:57;4.20;;;3.90;;
15142;SDS011;7672;50.834;6.286;2022-08-16T02:02:25;3.97;;;3.67;;
15142;SDS011;7672;50.834;6.286;2022-08-16T02:04:56;6.23;;;3.90;;
15142;SDS011;7672;50.834;6.286;2022-08-16T02:07:28;4.83;;;3.70;;
15142;SDS011;7672;50.834;6.286;2022-08-16T02:09:58;4.47;;;4.07;;
15142;SDS011;7672;50.834;6.286;2022-08-16T02:12:36;4.97;;;3.90;;
15142;SDS011;7672;50.834;6.286;2022-08-16T02:15:21;4.67;;;4.37;;
15142;SDS011;7672;50.834;6.286;2022-08-16T02:18:09;4.83;;;4.37;;
15142;SDS011;7672;50.834;6.286;2022-08-16T02:20:41;4.83;;;4.40;;
15142;SDS011;7672;50.834;6.286;2022-08-16T02:23:32;6.63;;;4.27;;
15142;SDS011;7672;50.834;6.286;2022-08-16T02:26:11;5.10;;;4.70;;
15142;SDS011;7672;50.834;6.286;2022-08-16T02:28:44;5.33;;;4.83;;
15142;SDS011;7672;50.834;6.286;2022-08-16T02:31:15;5.22;;;4.82;;
15142;SDS011;7672;50.834;6.286;2022-08-16T02:34:06;7.07;;;4.80;;
15142;SDS011;7672;50.834;6.286;2022-08-16T02:36:40;5.30;;;4.80;;
15142;SDS011;7672;50.834;6.286;2022-08-16T02:39:19;5.68;;;4.97;;
15142;SDS011;7672;50.834;6.286;2022-08-16T02:41:49;4.73;;;4.33;;
15142;SDS011;7672;50.834;6.286;2022-08-16T02:44:19;4.70;;;4.10;;
15142;SDS011;7672;50.834;6.286;2022-08-16T02:46:57;4.17;;;3.87;;
15142;SDS011;7672;50.834;6.286;2022-08-16T02:49:33;4.68;;;4.25;;
15142;SDS011;7672;50.834;6.286;2022-08-16T02:52:24;4.75;;;4.25;;
15142;SDS011;7672;50.834;6.286;2022-08-16T02:54:59;5.27;;;4.67;;
15142;SDS011;7672;50.834;6.286;2022-08-16T02:57:32;4.60;;;4.20;;
15142;SDS011;7672;50.834;6.286;2022-08-16T03:00:01;4.50;;;4.10;;
15142;SDS011;7672;50.834;6.286;2022-08-16T03:02:57;4.03;;;3.73;;
15142;SDS011;7672;50.834;6.286;2022-08-16T03:05:27;4.37;;;4.00;;
15142;SDS011;7672;50.834;6.286;2022-08-16T03:07:57;4.97;;;4.47;;
15142;SDS011;7672;50.834;6.286;2022-08-16T03:10:25;5.15;;;4.28;;
15142;SDS011;7672;50.834;6.286;2022-08-16T03:12:59;4.70;;;4.30;;
15142;SDS011;7672;50.834;6.286;2022-08-16T03:15:28;4.77;;;4.37;;
15142;SDS011;7672;50.834;6.286;2022-08-16T03:17:57;4.57;;;4.03;;
15142;SDS011;7672;50.834;6.286;2022-08-16T03:20:27;4.20;;;3.90;;
15142;SDS011;7672;50.834;6.286;2022-08-16T03:22:58;5.03;;;4.55;;
15142;SDS011;7672;50.834;6.286;2022-08-16T03:25:27;4.40;;;4.10;;
15142;SDS011;7672;50.834;6.286;2022-08-16T03:28:10;4.47;;;4.07;;
15142;SDS011;7672;50.834;6.286;2022-08-16T03:30:38;4.40;;;4.00;;
15142;SDS011;7672;50.834;6.286;2022-08-16T03:33:06;3.90;;;3.53;;
15142;SDS011;7672;50.834;6.286;2022-08-16T03:35:35;4.90;;;4.40;;
15142;SDS011;7672;50.834;6.286;2022-08-16T03:38:22;4.17;;;3.77;;
15142;SDS011;7672;50.834;6.286;2022-08-16T03:41:00;3.97;;;3.63;;
15142;SDS011;7672;50.834;6.286;2022-08-16T03:43:50;5.07;;;3.60;;
15142;SDS011;7672;50.834;6.286;2022-08-16T03:46:23;4.67;;;4.20;;
15142;SDS011;7672;50.834;6.286;2022-08-16T03:49:17;5.40;;;3.43;;
15142;SDS011;7672;50.834;6.286;2022-08-16T03:52:02;4.10;;;3.70;;
15142;SDS011;7672;50.834;6.286;2022-08-16T03:54:35;4.13;;;3.80;;
15142;SDS011;7672;50.834;6.286;2022-08-16T03:57:03;6.63;;;4.10;;
15142;SDS011;7672;50.834;6.286;2022-08-16T03:59:36;8.03;;;4.17;;
15142;SDS011;7672;50.834;6.286;2022-08-16T04:02:08;4.20;;;3.80;;
15142;SDS011;7672;50.834;6.286;2022-08-16T04:05:01;5.30;;;3.97;;
15142;SDS011;7672;50.834;6.286;2022-08-16T04:07:37;4.37;;;3.97;;
15142;SDS011;7672;50.834;6.286;2022-08-16T04:10:09;4.60;;;4.20;;
15142;SDS011;7672;50.834;6.286;2022-08-16T04:13:03;6.80;;;4.53;;
15142;SDS011;7672;50.834;6.286;2022-08-16T04:15:46;6.50;;;4.53;;
15142;SDS011;7672;50.834;6.286;2022-08-16T04:18:18;5.70;;;4.83;;
15142;SDS011;7672;50.834;6.286;2022-08-16T04:20:51;5.73;;;4.50;;
15142;SDS011;7672;50.834;6.286;2022-08-16T04:23:27;5.63;;;5.13;;
15142;SDS011;7672;50.834;6.286;2022-08-16T04:25:55;7.22;;;5.25;;
15142;SDS011;7672;50.834;6.286;2022-08-16T04:28:30;5.60;;;4.97;;
15142;SDS011;7672;50.834;6.286;2022-08-16T04:31:26;6.60;;;6.00;;
15142;SDS011;7672;50.834;6.286;2022-08-16T04:33:56;6.60;;;5.90;;
15142;SDS011;7672;50.834;6.286;2022-08-16T04:36:38;7.13;;;5.17;;
15142;SDS011;7672;50.834;6.286;2022-08-16T04:39:08;10.33;;;5.50;;
15142;SDS011;7672;50.834;6.286;2022-08-16T04:41:41;6.53;;;5.60;;
15142;SDS011;7672;50.834;6.286;2022-08-16T04:44:21;5.50;;;4.90;;
15142;SDS011;7672;50.834;6.286;2022-08-16T04:47:10;5.43;;;4.73;;
15142;SDS011;7672;50.834;6.286;2022-08-16T04:49:50;6.70;;;5.25;;
15142;SDS011;7672;50.834;6.286;2022-08-16T04:52:18;6.80;;;5.17;;
15142;SDS011;7672;50.834;6.286;2022-08-16T04:55:18;5.47;;;4.97;;
15142;SDS011;7672;50.834;6.286;2022-08-16T04:58:07;5.37;;;4.70;;
15142;SDS011;7672;50.834;6.286;2022-08-16T05:00:54;5.10;;;4.57;;
15142;SDS011;7672;50.834;6.286;2022-08-16T05:03:22;7.18;;;4.80;;
15142;SDS011;7672;50.834;6.286;2022-08-16T05:05:57;5.45;;;4.80;;
15142;SDS011;7672;50.834;6.286;2022-08-16T05:08:38;8.40;;;4.55;;
15142;SDS011;7672;50.834;6.286;2022-08-16T05:11:14;5.25;;;4.75;;
15142;SDS011;7672;50.834;6.286;2022-08-16T05:13:46;5.75;;;4.95;;
15142;SDS011;7672;50.834;6.286;2022-08-16T05:17:08;7.25;;;5.60;;
15142;SDS011;7672;50.834;6.286;2022-08-16T05:19:28;8.63;;;5.80;;
15142;SDS011;7672;50.834;6.286;2022-08-16T05:22:23;6.22;;;5.00;;
15142;SDS011;7672;50.834;6.286;2022-08-16T05:24:59;5.07;;;4.57;;
15142;SDS011;7672;50.834;6.286;2022-08-16T05:27:34;8.45;;;5.05;;
15142;SDS011;7672;50.834;6.286;2022-08-16T05:30:36;5.30;;;4.50;;
15142;SDS011;7672;50.834;6.286;2022-08-16T05:33:09;5.00;;;4.50;;
15142;SDS011;7672;50.834;6.286;2022-08-16T05:35:47;5.68;;;5.18;;
15142;SDS011;7672;50.834;6.286;2022-08-16T05:38:21;6.18;;;4.70;;
15142;SDS011;7672;50.834;6.286;2022-08-16T05:41:05;5.35;;;4.78;;
15142;SDS011;7672;50.834;6.286;2022-08-16T05:43:44;5.65;;;5.15;;
15142;SDS011;7672;50.834;6.286;2022-08-16T05:46:41;6.00;;;5.40;;
15142;SDS011;7672;50.834;6.286;2022-08-16T05:49:29;8.05;;;5.78;;
15142;SDS011;7672;50.834;6.286;2022-08-16T05:52:05;6.90;;;6.07;;
15142;SDS011;7672;50.834;6.286;2022-08-16T05:54:38;7.38;;;6.75;;
15142;SDS011;7672;50.834;6.286;2022-08-16T05:57:13;8.68;;;5.78;;
15142;SDS011;7672;50.834;6.286;2022-08-16T05:59:43;5.95;;;5.45;;
15142;SDS011;7672;50.834;6.286;2022-08-16T06:02:27;5.40;;;4.90;;
15142;SDS011;7672;50.834;6.286;2022-08-16T06:04:58;4.13;;;3.83;;
15142;SDS011;7672;50.834;6.286;2022-08-16T06:07:31;4.88;;;3.85;;
15142;SDS011;7672;50.834;6.286;2022-08-16T06:10:03;6.53;;;4.05;;
15142;SDS011;7672;50.834;6.286;2022-08-16T06:12:35;5.57;;;4.75;;
15142;SDS011;7672;50.834;6.286;2022-08-16T06:15:04;4.47;;;3.85;;
15142;SDS011;7672;50.834;6.286;2022-08-16T06:17:41;4.28;;;3.92;;
15142;SDS011;7672;50.834;6.286;2022-08-16T06:20:12;4.35;;;4.05;;
15142;SDS011;7672;50.834;6.286;2022-08-16T06:22:51;4.85;;;4.38;;
15142;SDS011;7672;50.834;6.286;2022-08-16T06:25:29;5.95;;;4.78;;
15142;SDS011;7672;50.834;6.286;2022-08-16T06:28:05;5.10;;;4.72;;
15142;SDS011;7672;50.834;6.286;2022-08-16T06:30:42;5.28;;;4.55;;
15142;SDS011;7672;50.834;6.286;2022-08-16T06:33:13;7.10;;;4.30;;
15142;SDS011;7672;50.834;6.286;2022-08-16T06:35:47;7.60;;;5.28;;
15142;SDS011;7672;50.834;6.286;2022-08-16T06:38:23;6.22;;;4.97;;
15142;SDS011;7672;50.834;6.286;2022-08-16T06:41:00;5.53;;;5.10;;
15142;SDS011;7672;50.834;6.286;2022-08-16T06:43:30;5.75;;;5.25;;
15142;SDS011;7672;50.834;6.286;2022-08-16T06:45:59;6.13;;;5.55;;
15142;SDS011;7672;50.834;6.286;2022-08-16T06:48:29;5.90;;;5.40;;
15142;SDS011;7672;50.834;6.286;2022-08-16T06:51:00;6.97;;;5.25;;
15142;SDS011;7672;50.834;6.286;2022-08-16T06:53:31;5.70;;;5.20;;
15142;SDS011;7672;50.834;6.286;2022-08-16T06:56:02;6.65;;;5.78;;
15142;SDS011;7672;50.834;6.286;2022-08-16T06:58:48;5.85;;;5.25;;
15142;SDS011;7672;50.834;6.286;2022-08-16T07:01:17;5.78;;;5.30;;
15142;SDS011;7672;50.834;6.286;2022-08-16T07:04:06;5.57;;;5.07;;
15142;SDS011;7672;50.834;6.286;2022-08-16T07:06:37;8.88;;;5.60;;
15142;SDS011;7672;50.834;6.286;2022-08-16T07:09:08;8.50;;;5.00;;
15142;SDS011;7672;50.834;6.286;2022-08-16T07:11:41;6.20;;;4.82;;
15142;SDS011;7672;50.834;6.286;2022-08-16T07:14:11;6.60;;;5.85;;
15142;SDS011;7672;50.834;6.286;2022-08-16T07:16:51;5.05;;;4.72;;
15142;SDS011;7672;50.834;6.286;2022-08-16T07:19:23;5.47;;;5.00;;
15142;SDS011;7672;50.834;6.286;2022-08-16T07:22:12;6.28;;;5.18;;
15142;SDS011;7672;50.834;6.286;2022-08-16T07:25:00;5.72;;;5.22;;
15142;SDS011;7672;50.834;6.286;2022-08-16T07:27:28;5.47;;;5.07;;
15142;SDS011;7672;50.834;6.286;2022-08-16T07:29:58;5.00;;;4.60;;
15142;SDS011;7672;50.834;6.286;2022-08-16T07:32:26;5.32;;;5.00;;
15142;SDS011;7672;50.834;6.286;2022-08-16T07:34:59;5.47;;;4.97;;
15142;SDS011;7672;50.834;6.286;2022-08-16T07:38:05;5.70;;;4.78;;
15142;SDS011;7672;50.834;6.286;2022-08-16T07:40:33;5.07;;;4.68;;
15142;SDS011;7672;50.834;6.286;2022-08-16T07:43:23;5.45;;;4.95;;
15142;SDS011;7672;50.834;6.286;2022-08-16T07:45:54;5.15;;;4.70;;
15142;SDS011;7672;50.834;6.286;2022-08-16T07:48:21;5.57;;;5.15;;
15142;SDS011;7672;50.834;6.286;2022-08-16T07:50:49;5.00;;;4.60;;
15142;SDS011;7672;50.834;6.286;2022-08-16T07:53:24;5.35;;;4.90;;
15142;SDS011;7672;50.834;6.286;2022-08-16T07:55:56;4.93;;;4.63;;
15142;SDS011;7672;50.834;6.286;2022-08-16T07:58:30;5.65;;;5.15;;
15142;SDS011;7672;50.834;6.286;2022-08-16T08:01:05;5.85;;;5.35;;
15142;SDS011;7672;50.834;6.286;2022-08-16T08:03:38;6.57;;;5.28;;
15142;SDS011;7672;50.834;6.286;2022-08-16T08:06:18;5.82;;;5.22;;
15142;SDS011;7672;50.834;6.286;2022-08-16T08:08:50;5.45;;;4.95;;
15142;SDS011;7672;50.834;6.286;2022-08-16T08:11:24;5.63;;;5.13;;
15142;SDS011;7672;50.834;6.286;2022-08-16T08:13:54;5.15;;;4.70;;
15142;SDS011;7672;50.834;6.286;2022-08-16T08:16:29;5.32;;;4.82;;
15142;SDS011;7672;50.834;6.286;2022-08-16T08:18:58;5.82;;;5.43;;
15142;SDS011;7672;50.834;6.286;2022-08-16T08:21:28;5.72;;;5.28;;
15142;SDS011;7672;50.834;6.286;2022-08-16T08:24:17;5.68;;;5.20;;
15142;SDS011;7672;50.834;6.286;2022-08-16T08:26:46;5.32;;;4.90;;
15142;SDS011;7672;50.834;6.286;2022-08-16T08:29:16;5.13;;;4.72;;
15142;SDS011;7672;50.834;6.286;2022-08-16T08:31:49;5.43;;;4.80;;
15142;SDS011;7672;50.834;6.286;2022-08-16T08:34:18;5.13;;;4.72;;
15142;SDS011;7672;50.834;6.286;2022-08-16T08:36:47;7.35;;;5.65;;
15142;SDS011;7672;50.834;6.286;2022-08-16T08:39:19;5.95;;;5.30;;
15142;SDS011;7672;50.834;6.286;2022-08-16T08:41:47;7.07;;;5.28;;
15142;SDS011;7672;50.834;6.286;2022-08-16T08:44:14;5.00;;;4.70;;
15142;SDS011;7672;50.834;6.286;2022-08-16T08:46:55;5.13;;;4.72;;
15142;SDS011;7672;50.834;6.286;2022-08-16T08:49:26;5.22;;;4.82;;
15142;SDS011;7672;50.834;6.286;2022-08-16T08:52:13;5.40;;;5.00;;
15142;SDS011;7672;50.834;6.286;2022-08-16T08:55:02;5.38;;;4.97;;
15142;SDS011;7672;50.834;6.286;2022-08-16T08:57:39;6.57;;;5.30;;
15142;SDS011;7672;50.834;6.286;2022-08-16T09:00:13;5.25;;;4.80;;
15142;SDS011;7672;50.834;6.286;2022-08-16T09:02:46;4.93;;;4.63;;
15142;SDS011;7672;50.834;6.286;2022-08-16T09:05:18;5.55;;;4.97;;
15142;SDS011;7672;50.834;6.286;2022-08-16T09:08:01;5.20;;;4.80;;
15142;SDS011;7672;50.834;6.286;2022-08-16T09:10:31;5.28;;;4.72;;
15142;SDS011;7672;50.834;6.286;2022-08-16T09:13:04;6.68;;;6.00;;
15142;SDS011;7672;50.834;6.286;2022-08-16T09:15:35;5.68;;;5.07;;
15142;SDS011;7672;50.834;6.286;2022-08-16T09:18:02;6.20;;;5.60;;
15142;SDS011;7672;50.834;6.286;2022-08-16T09:20:51;5.65;;;5.07;;
15142;SDS011;7672;50.834;6.286;2022-08-16T09:23:26;5.93;;;4.88;;
15142;SDS011;7672;50.834;6.286;2022-08-16T09:25:54;5.50;;;5.00;;
15142;SDS011;7672;50.834;6.286;2022-08-16T09:28:21;5.30;;;4.80;;
15142;SDS011;7672;50.834;6.286;2022-08-16T09:31:12;7.18;;;5.18;;
15142;SDS011;7672;50.834;6.286;2022-08-16T09:33:41;5.50;;;5.10;;
15142;SDS011;7672;50.834;6.286;2022-08-16T09:36:17;5.78;;;5.28;;
15142;SDS011;7672;50.834;6.286;2022-08-16T09:38:59;5.82;;;5.13;;
15142;SDS011;7672;50.834;6.286;2022-08-16T09:41:28;5.57;;;5.18;;
15142;SDS011;7672;50.834;6.286;2022-08-16T09:43:58;5.57;;;5.07;;
15142;SDS011;7672;50.834;6.286;2022-08-16T09:46:45;5.57;;;4.68;;
15142;SDS011;7672;50.834;6.286;2022-08-16T09:49:15;5.90;;;5.03;;
15142;SDS011;7672;50.834;6.286;2022-08-16T09:51:45;5.57;;;4.75;;
15142;SDS011;7672;50.834;6.286;2022-08-16T09:54:19;5.93;;;5.35;;
15142;SDS011;7672;50.834;6.286;2022-08-16T09:56:48;5.68;;;5.20;;
15142;SDS011;7672;50.834;6.286;2022-08-16T09:59:18;5.10;;;4.70;;
15142;SDS011;7672;50.834;6.286;2022-08-16T10:01:50;5.45;;;5.05;;
15142;SDS011;7672;50.834;6.286;2022-08-16T10:04:19;5.15;;;4.65;;
15142;SDS011;7672;50.834;6.286;2022-08-16T10:06:58;5.22;;;4.78;;
15142;SDS011;7672;50.834;6.286;2022-08-16T10:09:26;4.70;;;4.32;;
15142;SDS011;7672;50.834;6.286;2022-08-16T10:12:13;4.82;;;4.40;;
15142;SDS011;7672;50.834;6.286;2022-08-16T10:14:59;4.70;;;4.20;;
15142;SDS011;7672;50.834;6.286;2022-08-16T10:17:27;4.90;;;4.40;;
15142;SDS011;7672;50.834;6.286;2022-08-16T10:19:54;4.78;;;4.30;;
15142;SDS011;7672;50.834;6.286;2022-08-16T10:22:21;6.15;;;4.63;;
15142;SDS011;7672;50.834;6.286;2022-08-16T10:24:48;4.97;;;4.10;;
15142;SDS011;7672;50.834;6.286;2022-08-16T10:27:25;4.10;;;3.80;;
15142;SDS011;7672;50.834;6.286;2022-08-16T10:30:13;4.90;;;4.38;;
15142;SDS011;7672;50.834;6.286;2022-08-16T10:32:53;6.18;;;3.95;;
15142;SDS011;7672;50.834;6.286;2022-08-16T10:35:21;4.88;;;4.05;;
15142;SDS011;7672;50.834;6.286;2022-08-16T10:37:57;4.55;;;4.25;;
15142;SDS011;7672;50.834;6.286;2022-08-16T10:40:52;5.10;;;4.53;;
15142;SDS011;7672;50.834;6.286;2022-08-16T10:43:19;6.13;;;3.90;;
15142;SDS011;7672;50.834;6.286;2022-08-16T10:45:47;4.70;;;3.80;;
15142;SDS011;7672;50.834;6.286;2022-08-16T10:48:26;5.25;;;4.80;;
15142;SDS011;7672;50.834;6.286;2022-08-16T10:50:56;4.32;;;4.03;;
15142;SDS011;7672;50.834;6.286;2022-08-16T10:53:25;5.05;;;4.05;;
15142;SDS011;7672;50.834;6.286;2022-08-16T10:55:59;5.15;;;3.80;;
15142;SDS011;7672;50.834;6.286;2022-08-16T10:58:51;4.50;;;4.10;;
15142;SDS011;7672;50.834;6.286;2022-08-16T11:01:18;5.43;;;4.28;;
15142;SDS011;7672;50.834;6.286;2022-08-16T11:04:05;4.70;;;4.28;;
15142;SDS011;7672;50.834;6.286;2022-08-16T11:06:52;4.55;;;4.15;;
15142;SDS011;7672;50.834;6.286;2022-08-16T11:09:40;3.90;;;3.60;;
15142;SDS011;7672;50.834;6.286;2022-08-16T11:12:09;6.03;;;4.57;;
15142;SDS011;7672;50.834;6.286;2022-08-16T11:14:39;4.13;;;3.75;;
15142;SDS011;7672;50.834;6.286;2022-08-16T11:17:26;4.82;;;4.30;;
15142;SDS011;7672;50.834;6.286;2022-08-16T11:19:57;4.47;;;4.10;;
15142;SDS011;7672;50.834;6.286;2022-08-16T11:22:45;4.43;;;3.70;;
15142;SDS011;7672;50.834;6.286;2022-08-16T11:25:19;4.63;;;3.60;;
15142;SDS011;7672;50.834;6.286;2022-08-16T11:28:15;5.35;;;3.90;;
15142;SDS011;7672;50.834;6.286;2022-08-16T11:31:02;4.53;;;3.97;;
15142;SDS011;7672;50.834;6.286;2022-08-16T11:33:30;4.25;;;3.75;;
15142;SDS011;7672;50.834;6.286;2022-08-16T11:36:17;6.45;;;3.92;;
15142;SDS011;7672;50.834;6.286;2022-08-16T11:38:53;3.90;;;3.60;;
15142;SDS011;7672;50.834;6.286;2022-08-16T11:41:26;4.18;;;3.78;;
15142;SDS011;7672;50.834;6.286;2022-08-16T11:43:56;5.10;;;4.10;;
15142;SDS011;7672;50.834;6.286;2022-08-16T11:46:23;4.20;;;3.80;;
15142;SDS011;7672;50.834;6.286;2022-08-16T11:49:10;5.43;;;3.92;;
15142;SDS011;7672;50.834;6.286;2022-08-16T11:51:39;4.10;;;3.80;;
15142;SDS011;7672;50.834;6.286;2022-08-16T11:54:11;4.45;;;3.70;;
15142;SDS011;7672;50.834;6.286;2022-08-16T11:56:46;5.13;;;4.10;;
15142;SDS011;7672;50.834;6.286;2022-08-16T11:59:31;5.60;;;4.32;;
15142;SDS011;7672;50.834;6.286;2022-08-16T12:02:01;4.45;;;4.15;;
15142;SDS011;7672;50.834;6.286;2022-08-16T12:04:48;5.10;;;4.60;;
15142;SDS011;7672;50.834;6.286;2022-08-16T12:07:18;5.40;;;4.30;;
15142;SDS011;7672;50.834;6.286;2022-08-16T12:09:49;4.50;;;4.10;;
15142;SDS011;7672;50.834;6.286;2022-08-16T12:12:19;4.60;;;4.15;;
15142;SDS011;7672;50.834;6.286;2022-08-16T12:14:49;4.78;;;4.20;;
15142;SDS011;7672;50.834;6.286;2022-08-16T12:17:26;8.18;;;4.00;;
15142;SDS011;7672;50.834;6.286;2022-08-16T12:19:57;4.60;;;4.20;;
15142;SDS011;7672;50.834;6.286;2022-08-16T12:22:25;4.72;;;4.28;;
15142;SDS011;7672;50.834;6.286;2022-08-16T12:24:53;5.85;;;4.55;;
15142;SDS011;7672;50.834;6.286;2022-08-16T12:27:21;4.78;;;4.32;;
15142;SDS011;7672;50.834;6.286;2022-08-16T12:29:52;4.43;;;4.03;;
15142;SDS011;7672;50.834;6.286;2022-08-16T12:32:24;4.30;;;3.90;;
15142;SDS011;7672;50.834;6.286;2022-08-16T12:35:07;5.03;;;3.92;;
15142;SDS011;7672;50.834;6.286;2022-08-16T12:37:38;5.07;;;4.10;;
15142;SDS011;7672;50.834;6.286;2022-08-16T12:40:08;4.75;;;4.35;;
15142;SDS011;7672;50.834;6.286;2022-08-16T12:42:50;4.65;;;4.22;;
15142;SDS011;7672;50.834;6.286;2022-08-16T12:45:24;5.13;;;4.15;;
15142;SDS011;7672;50.834;6.286;2022-08-16T12:47:54;4.82;;;4.43;;
15142;SDS011;7672;50.834;6.286;2022-08-16T12:51:00;5.97;;;3.92;;
15142;SDS011;7672;50.834;6.286;2022-08-16T12:53:45;4.57;;;4.15;;
15142;SDS011;7672;50.834;6.286;2022-08-16T12:56:19;5.20;;;4.05;;
15142;SDS011;7672;50.834;6.286;2022-08-16T12:58:57;4.75;;;4.03;;
15142;SDS011;7672;50.834;6.286;2022-08-16T13:01:28;6.32;;;3.92;;
15142;SDS011;7672;50.834;6.286;2022-08-16T13:03:59;4.88;;;4.47;;
15142;SDS011;7672;50.834;6.286;2022-08-16T13:06:46;5.10;;;4.60;;
15142;SDS011;7672;50.834;6.286;2022-08-16T13:09:18;4.70;;;4.30;;
15142;SDS011;7672;50.834;6.286;2022-08-16T13:12:05;4.47;;;4.07;;
15142;SDS011;7672;50.834;6.286;2022-08-16T13:14:44;5.15;;;4.70;;
15142;SDS011;7672;50.834;6.286;2022-08-16T13:17:17;6.05;;;4.68;;
15142;SDS011;7672;50.834;6.286;2022-08-16T13:19:52;9.18;;;4.75;;
15142;SDS011;7672;50.834;6.286;2022-08-16T13:22:38;8.00;;;3.97;;
15142;SDS011;7672;50.834;6.286;2022-08-16T13:25:12;6.75;;;4.53;;
15142;SDS011;7672;50.834;6.286;2022-08-16T13:27:48;7.20;;;4.45;;
15142;SDS011;7672;50.834;6.286;2022-08-16T13:30:43;4.88;;;4.40;;
15142;SDS011;7672;50.834;6.286;2022-08-16T13:33:22;5.10;;;4.60;;
15142;SDS011;7672;50.834;6.286;2022-08-16T13:35:59;5.32;;;4.80;;
15142;SDS011;7672;50.834;6.286;2022-08-16T13:38:26;9.73;;;4.63;;
15142;SDS011;7672;50.834;6.286;2022-08-16T13:41:03;5.15;;;4.53;;
15142;SDS011;7672;50.834;6.286;2022-08-16T13:43:35;7.20;;;4.25;;
15142;SDS011;7672;50.834;6.286;2022-08-16T13:46:07;5.05;;;4.55;;
15142;SDS011;7672;50.834;6.286;2022-08-16T13:48:36;8.50;;;4.43;;
15142;SDS011;7672;50.834;6.286;2022-08-16T13:51:10;4.78;;;4.38;;
15142;SDS011;7672;50.834;6.286;2022-08-16T13:53:46;7.50;;;4.47;;
15142;SDS011;7672;50.834;6.286;2022-08-16T13:56:25;5.65;;;4.20;;
15142;SDS011;7672;50.834;6.286;2022-08-16T13:59:04;5.28;;;4.25;;
15142;SDS011;7672;50.834;6.286;2022-08-16T14:01:50;4.57;;;4.18;;
15142;SDS011;7672;50.834;6.286;2022-08-16T14:04:29;5.18;;;4.68;;
15142;SDS011;7672;50.834;6.286;2022-08-16T14:07:01;5.28;;;4.57;;
15142;SDS011;7672;50.834;6.286;2022-08-16T14:09:31;7.13;;;3.97;;
15142;SDS011;7672;50.834;6.286;2022-08-16T14:11:59;4.38;;;3.97;;
15142;SDS011;7672;50.834;6.286;2022-08-16T14:14:42;4.85;;;4.28;;
15142;SDS011;7672;50.834;6.286;2022-08-16T14:17:09;4.80;;;4.40;;
15142;SDS011;7672;50.834;6.286;2022-08-16T14:19:36;4.72;;;4.00;;
15142;SDS011;7672;50.834;6.286;2022-08-16T14:22:13;4.95;;;4.45;;
15142;SDS011;7672;50.834;6.286;2022-08-16T14:24:57;6.78;;;4.13;;
15142;SDS011;7672;50.834;6.286;2022-08-16T14:27:25;6.90;;;4.10;;
15142;SDS011;7672;50.834;6.286;2022-08-16T14:29:55;4.25;;;3.95;;
15142;SDS011;7672;50.834;6.286;2022-08-16T14:32:25;4.90;;;4.50;;
15142;SDS011;7672;50.834;6.286;2022-08-16T14:35:06;5.70;;;4.15;;
15142;SDS011;7672;50.834;6.286;2022-08-16T14:37:40;5.45;;;4.35;;
15142;SDS011;7672;50.834;6.286;2022-08-16T14:40:09;4.57;;;4.28;;
15142;SDS011;7672;50.834;6.286;2022-08-16T14:42:46;5.65;;;4.47;;
15142;SDS011;7672;50.834;6.286;2022-08-16T14:45:14;4.40;;;4.10;;
15142;SDS011;7672;50.834;6.286;2022-08-16T14:47:46;4.90;;;4.47;;
15142;SDS011;7672;50.834;6.286;2022-08-16T14:50:16;4.72;;;3.95;;
15142;SDS011;7672;50.834;6.286;2022-08-16T14:52:53;5.70;;;5.20;;
15142;SDS011;7672;50.834;6.286;2022-08-16T14:55:29;4.53;;;4.13;;
15142;SDS011;7672;50.834;6.286;2022-08-16T14:57:58;5.78;;;4.55;;
15142;SDS011;7672;50.834;6.286;2022-08-16T15:00:25;6.75;;;4.50;;
15142;SDS011;7672;50.834;6.286;2022-08-16T15:03:02;4.88;;;4.32;;
15142;SDS011;7672;50.834;6.286;2022-08-16T15:05:35;4.68;;;4.28;;
15142;SDS011;7672;50.834;6.286;2022-08-16T15:08:05;4.78;;;4.30;;
15142;SDS011;7672;50.834;6.286;2022-08-16T15:10:32;6.43;;;4.50;;
15142;SDS011;7672;50.834;6.286;2022-08-16T15:13:08;4.40;;;4.00;;
15142;SDS011;7672;50.834;6.286;2022-08-16T15:15:37;4.60;;;4.18;;
15142;SDS011;7672;50.834;6.286;2022-08-16T15:18:06;7.32;;;4.68;;
15142;SDS011;7672;50.834;6.286;2022-08-16T15:20:37;6.00;;;4.60;;
15142;SDS011;7672;50.834;6.286;2022-08-16T15:23:07;4.65;;;4.35;;
15142;SDS011;7672;50.834;6.286;2022-08-16T15:25:41;6.80;;;4.60;;
15142;SDS011;7672;50.834;6.286;2022-08-16T15:28:28;5.40;;;4.90;;
15142;SDS011;7672;50.834;6.286;2022-08-16T15:30:58;5.03;;;4.53;;
15142;SDS011;7672;50.834;6.286;2022-08-16T15:33:29;4.90;;;4.40;;
15142;SDS011;7672;50.834;6.286;2022-08-16T15:36:15;4.75;;;4.32;;
15142;SDS011;7672;50.834;6.286;2022-08-16T15:38:46;4.72;;;4.32;;
15142;SDS011;7672;50.834;6.286;2022-08-16T15:44:09;4.93;;;4.43;;
15142;SDS011;7672;50.834;6.286;2022-08-16T15:46:48;5.90;;;4.50;;
15142;SDS011;7672;50.834;6.286;2022-08-16T15:49:28;5.20;;;4.40;;
15142;SDS011;7672;50.834;6.286;2022-08-16T15:52:20;7.63;;;5.07;;
15142;SDS011;7672;50.834;6.286;2022-08-16T15:54:56;7.90;;;5.20;;
15142;SDS011;7672;50.834;6.286;2022-08-16T15:57:49;5.30;;;4.80;;
15142;SDS011;7672;50.834;6.286;2022-08-16T16:00:19;5.10;;;4.60;;
15142;SDS011;7672;50.834;6.286;2022-08-16T16:02:59;5.38;;;4.93;;
15142;SDS011;7672;50.834;6.286;2022-08-16T16:05:34;5.95;;;4.63;;
15142;SDS011;7672;50.834;6.286;2022-08-16T16:08:04;7.40;;;5.18;;
15142;SDS011;7672;50.834;6.286;2022-08-16T16:10:38;8.38;;;4.70;;